Time;durP1;ratioP1;P1;durP2;ratioP2;P2;SDS_P1;SDS_P2;PMS_P1;PMS_P2;Temp;Humidity;BMP_temperature;BMP_pressure;BME280_temperature;BME280_humidity;BME280_pressure;Samples;Min_cycle;Max_cycle;Signal;HPM_P1;HPM_P2
2021/09/28 00:00:50;;;;;;;120.57;39.90;;;20.00;99.50;;;;;;5059773;28;20776;-72
2021/09/28 00:03:17;;;;;;;116.00;39.40;;;20.10;99.50;;;;;;5031503;28;20175;-66
2021/09/28 00:05:46;;;;;;;117.33;39.83;;;20.30;99.30;;;;;;5007240;28;20164;-70
2021/09/28 00:08:14;;;;;;;129.10;41.50;;;20.20;99.10;;;;;;5059229;28;20136;-72
2021/09/28 00:10:41;;;;;;;118.90;39.90;;;20.40;99.40;;;;;;5037603;28;20183;-65
2021/09/28 00:13:09;;;;;;;142.30;43.47;;;20.40;99.40;;;;;;5077361;28;20170;-70
2021/09/28 00:15:37;;;;;;;140.33;42.13;;;20.60;99.20;;;;;;5075012;28;20225;-69
2021/09/28 00:18:04;;;;;;;142.35;42.50;;;20.90;99.00;;;;;;5075963;28;20648;-72
2021/09/28 00:20:37;;;;;;;148.80;43.50;;;20.80;98.40;;;;;;5072841;28;20616;-68
2021/09/28 00:23:13;;;;;;;142.80;43.70;;;20.80;99.20;;;;;;5061009;28;20177;-77
2021/09/28 00:25:41;;;;;;;164.00;45.17;;;20.70;98.80;;;;;;5076759;28;20664;-72
2021/09/28 00:28:09;;;;;;;159.80;44.10;;;20.50;99.10;;;;;;5064463;28;20347;-72
2021/09/28 00:30:35;;;;;;;;;;;20.70;98.80;;;;;;4986223;28;20635;-72
2021/09/28 00:33:03;;;;;;;128.75;33.70;;;20.80;99.10;;;;;;4870330;28;685191;-69
2021/09/28 00:35:31;;;;;;;145.60;42.15;;;20.80;98.80;;;;;;5053458;28;20241;-73
2021/09/28 00:37:58;;;;;;;162.35;44.50;;;21.00;98.80;;;;;;5062574;28;20161;-67
2021/09/28 00:40:25;;;;;;;167.30;44.40;;;21.30;98.60;;;;;;5062508;28;20645;-75
2021/09/28 00:42:53;;;;;;;174.57;44.77;;;21.40;98.50;;;;;;5061315;28;20175;-68
2021/09/28 00:45:20;;;;;;;171.20;44.40;;;21.40;98.40;;;;;;5055350;28;145088;-74
2021/09/28 00:50:17;;;;;;;27.00;9.60;;;21.50;98.50;;;;;;4961283;27;776033;-73
2021/09/28 00:52:46;;;;;;;37.30;13.00;;;21.90;98.30;;;;;;4939758;28;821898;-75
2021/09/28 00:57:58;;;;;;;162.90;42.70;;;21.70;97.80;;;;;;4989184;27;901073;-70
2021/09/28 01:00:25;;;;;;;166.80;45.10;;;21.40;98.30;;;;;;5061887;28;88092;-72
2021/09/28 01:02:54;;;;;;;149.95;43.30;;;21.50;98.70;;;;;;5075322;28;20512;-72
2021/09/28 01:05:21;;;;;;;136.15;41.50;;;21.50;98.60;;;;;;5076160;28;20191;-72
2021/09/28 01:07:48;;;;;;;126.00;40.90;;;21.50;98.90;;;;;;5064806;28;20179;-68
2021/09/28 01:10:16;;;;;;;121.05;39.55;;;21.50;98.60;;;;;;5058653;28;20210;-76
2021/09/28 01:12:42;;;;;;;;;;;21.70;98.60;;;;;;5045969;28;20178;-71
2021/09/28 01:15:10;;;;;;;125.10;40.20;;;21.70;98.50;;;;;;5067522;28;20205;-74
2021/09/28 01:17:37;;;;;;;115.80;40.00;;;21.70;98.50;;;;;;5018470;28;20213;-70
2021/09/28 01:20:05;;;;;;;107.90;38.80;;;21.70;98.60;;;;;;5019116;28;20605;-74
2021/09/28 01:22:32;;;;;;;;;;;21.70;98.30;;;;;;5000374;28;20168;-71
2021/09/28 01:24:59;;;;;;;;;;;21.80;98.30;;;;;;4965771;28;22933;-68
2021/09/28 01:27:26;;;;;;;;;;;21.90;98.30;;;;;;4899850;28;66466;-71
2021/09/28 01:29:53;;;;;;;;;;;22.20;98.10;;;;;;4964297;28;40176;-73
2021/09/28 01:32:20;;;;;;;97.65;37.25;;;22.20;97.90;;;;;;4922169;28;68155;-75
2021/09/28 01:34:48;;;;;;;109.60;39.45;;;22.20;98.00;;;;;;4991797;28;20182;-73
2021/09/28 01:37:15;;;;;;;104.40;38.40;;;22.50;97.90;;;;;;4979702;28;20171;-78
2021/09/28 01:39:41;;;;;;;;;;;22.50;97.30;;;;;;4909978;28;20185;-74
2021/09/28 01:42:08;;;;;;;;;;;22.60;97.60;;;;;;4436632;28;488678;-76
2021/09/28 01:44:35;;;;;;;;;;;22.50;97.30;;;;;;3340342;28;35796;-75
2021/09/28 01:47:02;;;;;;;;;;;22.30;97.50;;;;;;3107892;28;59898;-73
2021/09/28 01:49:30;;;;;;;8.70;7.97;;;22.40;97.70;;;;;;4980055;28;432821;-75
2021/09/28 01:54:34;;;;;;;166.20;44.70;;;22.40;97.50;;;;;;5072258;27;20942;-76
2021/09/28 01:57:00;;;;;;;;;;;22.90;96.90;;;;;;4719224;28;20347;-72
2021/09/28 02:01:54;;;;;;;;;;;23.10;96.60;;;;;;4775808;27;20296;-68
2021/09/28 02:05:00;;;;;;;;;;;22.90;96.80;;;;;;4786905;27;20517;-68
2021/09/28 02:07:27;;;;;;;162.30;40.70;;;23.20;96.30;;;;;;4350094;28;912652;-65
2021/09/28 02:09:54;;;;;;;170.00;45.40;;;23.50;96.00;;;;;;5076579;28;20193;-66
2021/09/28 02:12:21;;;;;;;166.20;46.85;;;23.30;96.00;;;;;;5061456;28;20164;-69
2021/09/28 02:14:49;;;;;;;159.75;45.50;;;22.90;96.50;;;;;;5072171;28;20408;-65
2021/09/28 02:17:16;;;;;;;145.80;43.80;;;22.70;97.00;;;;;;5047952;28;20180;-65
2021/09/28 02:19:43;;;;;;;;;;;22.70;96.80;;;;;;4915839;28;30413;-66
2021/09/28 02:22:09;;;;;;;;;;;22.90;96.80;;;;;;4919514;28;20245;-67
2021/09/28 02:24:37;;;;;;;154.80;44.65;;;22.90;96.90;;;;;;5046881;28;29241;-73
2021/09/28 02:28:31;;;;;;;156.75;39.70;;;22.90;96.90;;;;;;4984702;27;398876;-68
2021/09/28 02:30:59;;;;;;;158.47;44.27;;;22.70;97.00;;;;;;5042640;28;20333;-67
2021/09/28 02:33:26;;;;;;;;;;;22.80;96.90;;;;;;4906029;28;20149;-74
2021/09/28 02:35:52;;;;;;;;;;;22.10;97.30;;;;;;4985574;28;20165;-71
2021/09/28 02:38:19;;;;;;;;;;;22.20;97.80;;;;;;4779114;28;96446;-67
2021/09/28 02:40:46;;;;;;;;;;;22.20;97.70;;;;;;4802344;28;22955;-74
2021/09/28 02:43:13;;;;;;;;;;;22.00;97.80;;;;;;4750194;28;83141;-70
2021/09/28 02:45:40;;;;;;;;;;;22.10;97.70;;;;;;4831002;28;180830;-72
2021/09/28 02:48:07;;;;;;;;;;;21.80;97.40;;;;;;4721899;28;214142;-72
2021/09/28 02:50:34;;;;;;;;;;;21.70;98.10;;;;;;4709127;28;275139;-74
2021/09/28 02:53:02;;;;;;;;;;;22.00;97.40;;;;;;4604859;28;247498;-74
2021/09/28 02:55:28;;;;;;;;;;;22.50;97.20;;;;;;4478003;28;604203;-72
2021/09/28 02:57:55;;;;;;;;;;;22.90;96.70;;;;;;1457816;28;97479;-75
2021/09/28 03:00:22;;;;;;;;;;;23.20;96.20;;;;;;1001688;28;22829;-78
2021/09/28 03:02:48;;;;;;;;;;;23.10;96.00;;;;;;1967065;28;22510;-78
2021/09/28 03:05:15;;;;;;;;;;;23.00;96.20;;;;;;4577799;28;573043;-71
2021/09/28 03:07:42;;;;;;;;;;;23.40;96.30;;;;;;4588772;28;283880;-73
2021/09/28 03:10:10;;;;;;;135.10;42.40;;;23.50;95.90;;;;;;3728653;28;26167;-75
2021/09/28 03:12:37;;;;;;;151.30;43.60;;;23.70;95.80;;;;;;5033755;28;20152;-74
2021/09/28 03:15:04;;;;;;;;;;;24.10;95.80;;;;;;4980832;28;20688;-76
2021/09/28 03:17:31;;;;;;;;;;;24.20;95.40;;;;;;4968102;28;20176;-77
2021/09/28 03:19:58;;;;;;;;;;;23.80;96.00;;;;;;4958644;28;20157;-76
2021/09/28 03:22:24;;;;;;;;;;;24.30;95.60;;;;;;4963554;28;20284;-75
2021/09/28 03:24:51;;;;;;;;;;;24.00;95.10;;;;;;4885181;28;52167;-78
2021/09/28 03:27:18;;;;;;;;;;;23.80;95.80;;;;;;2857474;28;22859;-75
2021/09/28 03:29:44;;;;;;;;;;;23.20;96.00;;;;;;4661653;28;52253;-77
2021/09/28 03:34:36;;;;;;;;;;;22.70;96.60;;;;;;4631621;27;596350;-75
2021/09/28 03:37:03;;;;;;;;;;;23.10;96.60;;;;;;4650463;27;577766;-76
2021/09/28 03:39:31;;;;;;;;;;;22.80;96.70;;;;;;4996151;27;20209;-74
2021/09/28 03:41:58;;;;;;;;;;;23.30;96.60;;;;;;4986759;28;20179;-66
2021/09/28 03:44:25;;;;;;;;;;;23.50;95.80;;;;;;4965285;28;40394;-78
2021/09/28 03:46:51;;;;;;;;;;;23.00;96.20;;;;;;4918947;28;47917;-75
2021/09/28 03:49:18;;;;;;;;;;;22.80;96.50;;;;;;4900261;28;59865;-77
2021/09/28 03:51:45;;;;;;;;;;;22.40;97.10;;;;;;4905011;28;100506;-75
2021/09/28 03:54:12;;;;;;;;;;;22.00;97.20;;;;;;4923018;28;96411;-77
2021/09/28 03:56:38;;;;;;;;;;;21.70;97.70;;;;;;4986700;28;45141;-66
2021/09/28 03:59:05;;;;;;;;;;;21.50;98.40;;;;;;4828184;28;20187;-75
2021/09/28 04:04:07;;;;;;;;;;;21.60;98.80;;;;;;4482380;28;20460;-70
2021/09/28 04:06:33;;;;;;;;;;;21.30;99.60;;;;;;4948123;28;22227;-78
2021/09/28 04:09:00;;;;;;;;;;;21.10;99.60;;;;;;4914203;28;36213;-79
2021/09/28 04:11:27;;;;;;;;;;;20.90;99.80;;;;;;4957959;28;20181;-67
2021/09/28 04:13:53;;;;;;;;;;;20.70;99.90;;;;;;4917407;28;21750;-70
2021/09/28 04:16:21;;;;;;;;;;;20.60;99.90;;;;;;4872363;28;70720;-77
2021/09/28 04:18:49;;;;;;;;;;;20.60;99.90;;;;;;4898896;28;47740;-66
2021/09/28 04:21:16;;;;;;;;;;;20.50;99.90;;;;;;4899808;28;54325;-67
2021/09/28 04:23:42;;;;;;;;;;;20.50;99.90;;;;;;4855470;28;89029;-66
2021/09/28 04:26:09;;;;;;;;;;;20.40;99.90;;;;;;4980596;28;20158;-66
2021/09/28 04:28:36;;;;;;;;;;;20.20;99.90;;;;;;4974437;28;20248;-72
2021/09/28 04:31:03;;;;;;;;;;;20.10;99.90;;;;;;4982652;28;20153;-67
2021/09/28 04:33:29;;;;;;;;;;;20.10;99.90;;;;;;5007690;27;20198;-70
2021/09/28 04:35:56;;;;;;;;;;;20.10;99.90;;;;;;4967431;28;23356;-66
2021/09/28 04:38:23;;;;;;;;;;;20.10;99.90;;;;;;4948722;28;20301;-68
2021/09/28 04:40:50;;;;;;;131.70;41.50;;;20.10;99.90;;;;;;4854950;28;21149;-68
2021/09/28 04:43:17;;;;;;;;;;;20.20;99.90;;;;;;4831429;28;108127;-71
2021/09/28 04:45:44;;;;;;;;;;;20.10;99.90;;;;;;4630331;28;173291;-65
2021/09/28 04:48:10;;;;;;;;;;;20.00;99.90;;;;;;4898969;28;26467;-75
2021/09/28 04:50:37;;;;;;;;;;;19.90;99.90;;;;;;4953375;28;20364;-69
2021/09/28 04:53:04;;;;;;;;;;;19.80;99.90;;;;;;4890946;28;25383;-78
2021/09/28 04:55:30;;;;;;;;;;;19.90;99.90;;;;;;4924042;28;32858;-80
2021/09/28 04:57:57;;;;;;;;;;;20.00;99.90;;;;;;4921278;28;28717;-70
2021/09/28 05:00:24;;;;;;;;;;;19.90;99.90;;;;;;4935946;28;30913;-77
2021/09/28 05:02:50;;;;;;;;;;;19.90;99.90;;;;;;4914984;28;23890;-78
2021/09/28 05:05:17;;;;;;;;;;;19.90;99.90;;;;;;4903447;28;32729;-72
2021/09/28 05:07:44;;;;;;;;;;;19.90;99.90;;;;;;4965161;28;20613;-76
2021/09/28 05:10:11;;;;;;;109.10;39.00;;;20.10;99.90;;;;;;4977542;28;20161;-72
2021/09/28 05:12:39;;;;;;;119.55;39.95;;;19.90;99.90;;;;;;4989546;28;20298;-74
2021/09/28 05:15:07;;;;;;;131.67;41.50;;;20.00;99.90;;;;;;5016498;28;20149;-72
2021/09/28 05:17:35;;;;;;;160.23;45.00;;;19.90;99.90;;;;;;5041816;28;20542;-65
2021/09/28 05:20:06;;;;;;;169.60;45.40;;;19.80;99.90;;;;;;5041772;28;20185;-67
2021/09/28 05:22:34;;;;;;;155.90;43.43;;;19.80;99.90;;;;;;5045495;28;20200;-74
2021/09/28 05:25:01;;;;;;;150.47;44.20;;;19.80;99.90;;;;;;5050079;28;20690;-73
2021/09/28 05:27:29;;;;;;;155.33;44.07;;;19.70;99.90;;;;;;5043526;28;20304;-76
2021/09/28 05:29:56;;;;;;;152.07;43.80;;;19.60;99.90;;;;;;5035014;28;20230;-70
2021/09/28 05:32:23;;;;;;;158.87;44.20;;;19.60;99.90;;;;;;5040631;28;20185;-73
2021/09/28 05:34:51;;;;;;;162.23;44.23;;;19.60;99.90;;;;;;5040705;28;20188;-73
2021/09/28 05:37:18;;;;;;;158.17;44.30;;;19.60;99.90;;;;;;5047807;28;20190;-73
2021/09/28 05:39:45;;;;;;;152.37;43.23;;;19.60;99.90;;;;;;5042604;28;20651;-77
2021/09/28 05:42:13;;;;;;;181.55;46.85;;;19.60;99.90;;;;;;5047281;28;20211;-75
2021/09/28 05:44:40;;;;;;;179.07;46.33;;;19.60;99.90;;;;;;5038343;28;20414;-75
2021/09/28 05:47:08;;;;;;;166.50;44.63;;;19.70;99.90;;;;;;5041476;28;20266;-76
2021/09/28 05:49:37;;;;;;;165.03;45.40;;;19.80;99.90;;;;;;5047443;28;20248;-76
2021/09/28 05:52:08;;;;;;;164.33;44.87;;;19.90;99.90;;;;;;5032124;28;20189;-78
2021/09/28 05:54:40;;;;;;;150.00;43.30;;;19.90;99.90;;;;;;5034630;28;20644;-74
2021/09/28 05:57:08;;;;;;;150.63;43.30;;;19.80;99.90;;;;;;5045921;28;20187;-72
2021/09/28 05:59:35;;;;;;;155.30;44.40;;;19.80;99.90;;;;;;5042715;28;20187;-70
2021/09/28 06:02:03;;;;;;;160.83;45.13;;;19.70;99.90;;;;;;5047422;28;20291;-74
2021/09/28 06:04:30;;;;;;;155.13;43.70;;;19.70;99.90;;;;;;5047939;28;20183;-75
2021/09/28 06:06:57;;;;;;;154.50;44.40;;;19.60;99.90;;;;;;5056196;28;20182;-73
2021/09/28 06:09:25;;;;;;;164.68;45.75;;;19.60;99.90;;;;;;5016267;28;21254;-66
2021/09/28 06:11:52;;;;;;;154.05;44.20;;;19.60;99.90;;;;;;5034756;28;20208;-68
2021/09/28 06:14:20;;;;;;;140.60;42.20;;;19.70;99.90;;;;;;5046643;28;20222;-66
2021/09/28 06:16:47;;;;;;;148.70;43.00;;;19.60;99.90;;;;;;5052507;28;20192;-65
2021/09/28 06:19:14;;;;;;;152.90;44.10;;;19.60;99.90;;;;;;5047707;28;20182;-64
2021/09/28 06:21:42;;;;;;;151.60;44.27;;;19.60;99.90;;;;;;5055720;28;20192;-69
2021/09/28 06:24:09;;;;;;;147.30;42.90;;;19.60;99.90;;;;;;5046853;28;20186;-72
2021/09/28 06:26:36;;;;;;;;;;;19.50;99.90;;;;;;5034675;28;20186;-69
2021/09/28 06:29:04;;;;;;;127.30;40.03;;;19.40;99.90;;;;;;5033643;28;20693;-69
2021/09/28 06:31:31;;;;;;;134.40;40.50;;;19.50;99.90;;;;;;5036872;28;20171;-74
2021/09/28 06:33:58;;;;;;;132.63;40.10;;;19.50;99.90;;;;;;5029656;28;20163;-74
2021/09/28 06:36:26;;;;;;;131.53;40.70;;;19.40;99.90;;;;;;5035207;28;20769;-76
2021/09/28 06:38:53;;;;;;;136.00;41.67;;;19.30;99.90;;;;;;5034130;28;20185;-71
2021/09/28 06:41:21;;;;;;;136.60;41.20;;;19.20;99.90;;;;;;5040339;28;20292;-72
2021/09/28 06:43:48;;;;;;;;;;;19.20;99.90;;;;;;5039520;28;20207;-70
2021/09/28 06:46:15;;;;;;;130.50;40.40;;;19.20;99.90;;;;;;5020626;28;20179;-71
2021/09/28 06:48:42;;;;;;;137.50;41.40;;;19.30;99.90;;;;;;5028267;28;20271;-75
2021/09/28 06:51:10;;;;;;;136.30;40.70;;;19.40;99.90;;;;;;5046909;28;20210;-74
2021/09/28 06:53:37;;;;;;;147.20;43.00;;;19.30;99.90;;;;;;5038291;28;20534;-70
2021/09/28 06:56:05;;;;;;;133.95;40.90;;;19.30;99.90;;;;;;5024871;28;20626;-76
2021/09/28 06:58:33;;;;;;;123.85;39.55;;;19.50;99.90;;;;;;5012916;28;20342;-75
2021/09/28 07:01:00;;;;;;;;;;;19.60;99.90;;;;;;4969586;28;20208;-76
2021/09/28 07:03:27;;;;;;;149.70;42.45;;;19.70;99.90;;;;;;5043178;28;20676;-76
2021/09/28 07:05:55;;;;;;;160.57;46.50;;;19.80;99.90;;;;;;5037456;28;20186;-77
2021/09/28 07:08:22;;;;;;;159.90;44.40;;;19.80;99.90;;;;;;5034136;28;20152;-73
2021/09/28 07:10:49;;;;;;;165.80;43.50;;;20.10;99.90;;;;;;4993366;28;412870;-75
2021/09/28 07:13:17;;;;;;;153.80;44.75;;;20.00;99.90;;;;;;5033624;28;20184;-76
2021/09/28 07:15:44;;;;;;;168.37;47.43;;;20.00;99.90;;;;;;5018803;28;196295;-76
2021/09/28 07:18:12;;;;;;;166.60;45.70;;;19.80;99.90;;;;;;5041934;28;20201;-73
2021/09/28 07:20:39;;;;;;;;;;;19.60;99.90;;;;;;5001811;28;42164;-73
2021/09/28 07:23:07;;;;;;;138.00;41.90;;;19.70;99.90;;;;;;4993796;28;292118;-71
2021/09/28 07:25:34;;;;;;;93.70;27.30;;;19.40;99.90;;;;;;4901681;28;503708;-72
2021/09/28 07:28:02;;;;;;;167.30;43.80;;;19.20;99.90;;;;;;5021843;28;795017;-78
2021/09/28 07:30:33;;;;;;;170.13;45.33;;;19.00;99.90;;;;;;5046942;28;20183;-73
2021/09/28 07:33:01;;;;;;;168.13;44.67;;;19.00;99.90;;;;;;5040265;28;20599;-76
2021/09/28 07:35:28;;;;;;;149.33;42.27;;;18.90;99.90;;;;;;5039488;28;20281;-74
2021/09/28 07:37:56;;;;;;;150.47;43.80;;;18.80;99.90;;;;;;5034823;28;20174;-68
2021/09/28 07:40:24;;;;;;;169.10;44.85;;;18.80;99.90;;;;;;5042504;28;20177;-72
2021/09/28 07:42:51;;;;;;;183.00;46.90;;;18.60;99.90;;;;;;5057147;28;20218;-69
2021/09/28 07:45:18;;;;;;;;;;;18.50;99.90;;;;;;5042574;28;20239;-69
2021/09/28 07:47:46;;;;;;;143.32;43.13;;;18.40;99.90;;;;;;4960717;28;20544;-67
2021/09/28 07:50:13;;;;;;;139.40;41.70;;;18.40;99.90;;;;;;5032328;28;20680;-65
2021/09/28 07:52:41;;;;;;;127.80;40.80;;;18.40;99.90;;;;;;5032690;28;20238;-68
2021/09/28 07:55:09;;;;;;;122.75;40.20;;;18.40;99.90;;;;;;5031589;28;20199;-65
2021/09/28 07:57:37;;;;;;;126.20;41.05;;;18.30;99.90;;;;;;5036916;28;20363;-69
2021/09/28 08:00:07;;;;;;;122.00;40.50;;;18.20;99.90;;;;;;5031313;28;20412;-70
2021/09/28 08:02:35;;;;;;;117.10;39.70;;;18.20;99.90;;;;;;5015417;28;20190;-70
2021/09/28 08:05:02;;;;;;;127.87;40.60;;;18.20;99.90;;;;;;5030989;28;20191;-69
2021/09/28 08:07:30;;;;;;;118.00;39.43;;;18.10;99.90;;;;;;5026472;28;20270;-65
2021/09/28 08:09:56;;;;;;;;;;;18.10;99.90;;;;;;5012836;28;20198;-68
2021/09/28 08:12:24;;;;;;;115.03;39.53;;;18.10;99.90;;;;;;5018354;28;20179;-70
2021/09/28 08:14:51;;;;;;;111.90;38.70;;;18.00;99.90;;;;;;5006528;28;20185;-75
2021/09/28 08:17:18;;;;;;;107.40;38.40;;;18.00;99.90;;;;;;5001748;28;20271;-76
2021/09/28 08:19:49;;;;;;;;;;;18.00;99.90;;;;;;4969977;28;20340;-68
2021/09/28 08:22:16;;;;;;;;;;;18.00;99.90;;;;;;4939892;28;20220;-75
2021/09/28 08:24:43;;;;;;;;;;;18.00;99.90;;;;;;4904519;28;20153;-78
2021/09/28 08:29:56;;;;;;;;;;;17.90;99.90;;;;;;4879483;28;20215;-76
2021/09/28 08:32:23;;;;;;;;;;;17.90;99.90;;;;;;4959030;28;20160;-72
2021/09/28 08:34:51;;;;;;;;;;;17.90;99.90;;;;;;4942515;28;20195;-72
2021/09/28 08:37:18;;;;;;;;;;;17.90;99.90;;;;;;4916553;28;20170;-74
2021/09/28 08:39:45;;;;;;;;;;;17.90;99.90;;;;;;4899708;28;38150;-70
2021/09/28 08:42:13;;;;;;;;;;;17.80;99.90;;;;;;4865494;28;27472;-76
2021/09/28 08:44:43;;;;;;;81.35;29.85;;;17.80;99.90;;;;;;4451017;28;112826;-74
2021/09/28 08:47:10;;;;;;;160.47;43.07;;;17.80;99.90;;;;;;5054963;28;20267;-77
2021/09/28 08:49:38;;;;;;;150.63;42.17;;;17.80;99.90;;;;;;5045618;28;20183;-70
2021/09/28 08:52:06;;;;;;;150.33;42.27;;;17.80;99.90;;;;;;5051140;28;20642;-73
2021/09/28 08:54:34;;;;;;;138.10;40.90;;;17.80;99.90;;;;;;5040136;28;20644;-73
2021/09/28 08:57:03;;;;;;;129.00;40.45;;;17.80;99.90;;;;;;5038367;28;20217;-69
2021/09/28 08:59:49;;;;;;;127.10;40.10;;;17.80;99.90;;;;;;5040860;28;20287;-65
2021/09/28 09:02:18;;;;;;;133.10;40.40;;;17.80;99.90;;;;;;5041336;28;20234;-68
2021/09/28 09:05:03;;;;;;;131.50;40.80;;;17.80;99.90;;;;;;5039710;28;20192;-72
2021/09/28 09:07:31;;;;;;;121.10;39.10;;;17.80;99.90;;;;;;5038021;28;20228;-68
2021/09/28 09:09:59;;;;;;;119.30;38.95;;;17.80;99.90;;;;;;5027975;28;20180;-64
2021/09/28 09:12:30;;;;;;;;;;;17.70;99.90;;;;;;4994981;28;20250;-63
2021/09/28 09:15:25;;;;;;;95.50;36.50;;;17.70;99.90;;;;;;4939817;28;20838;-66
2021/09/28 09:17:55;;;;;;;90.10;35.50;;;17.70;99.90;;;;;;4910963;28;20160;-66
2021/09/28 09:20:41;;;;;;;122.80;39.70;;;17.70;99.90;;;;;;5025519;28;20518;-68
2021/09/28 09:23:35;;;;;;;116.60;39.40;;;17.70;99.90;;;;;;5023113;28;20299;-71
2021/09/28 09:26:11;;;;;;;;;;;17.70;99.90;;;;;;4994616;28;20189;-63
2021/09/28 09:28:39;;;;;;;;;;;17.70;99.90;;;;;;4985115;28;20372;-63
2021/09/28 09:31:14;;;;;;;95.80;36.60;;;17.70;99.90;;;;;;4941226;28;20249;-68
2021/09/28 09:33:44;;;;;;;107.15;37.45;;;17.70;99.90;;;;;;5001557;28;20647;-63
2021/09/28 09:36:15;;;;;;;;;;;17.70;99.90;;;;;;4739949;28;76981;-66
2021/09/28 09:38:47;;;;;;;;;;;17.70;99.90;;;;;;4829853;28;20276;-66
2021/09/28 09:41:16;;;;;;;114.60;38.35;;;17.70;99.90;;;;;;5015012;28;20911;-72
2021/09/28 09:43:43;;;;;;;;;;;17.70;99.90;;;;;;4935951;28;20413;-65
2021/09/28 09:46:15;;;;;;;;;;;17.70;99.90;;;;;;4947790;28;20258;-65
2021/09/28 09:48:42;;;;;;;;;;;17.70;99.90;;;;;;4808798;28;20831;-66
2021/09/28 09:51:13;;;;;;;;;;;17.70;99.90;;;;;;4687295;28;190316;-68
2021/09/28 09:53:51;;;;;;;;;;;17.70;99.90;;;;;;4259875;28;20700;-65
2021/09/28 09:56:18;;;;;;;;;;;17.70;99.90;;;;;;4740858;28;183723;-72
2021/09/28 09:58:45;;;;;;;;;;;17.70;99.90;;;;;;4716023;28;126136;-67
2021/09/28 10:01:11;;;;;;;;;;;17.70;99.90;;;;;;3831313;28;21270;-66
2021/09/28 10:03:38;;;;;;;;;;;17.70;99.90;;;;;;4610302;28;339131;-67
2021/09/28 10:06:06;;;;;;;;;;;17.70;99.90;;;;;;3500964;28;20936;-69
2021/09/28 10:08:33;;;;;;;;;;;17.70;99.90;;;;;;4935646;28;20172;-67
2021/09/28 10:11:01;;;;;;;167.77;44.60;;;17.70;99.90;;;;;;4963286;28;21095;-67
2021/09/28 10:13:46;;;;;;;146.33;43.70;;;17.70;99.90;;;;;;5037980;28;20179;-69
2021/09/28 10:16:39;;;;;;;138.60;41.40;;;17.60;99.90;;;;;;5030890;28;20194;-69
2021/09/28 10:19:28;;;;;;;129.65;39.75;;;17.60;99.90;;;;;;5032763;28;20231;-64
2021/09/28 10:21:58;;;;;;;132.10;41.70;;;17.60;99.90;;;;;;5033467;28;20497;-65
2021/09/28 10:24:32;;;;;;;124.20;38.90;;;17.60;99.90;;;;;;5029053;28;20241;-70
2021/09/28 10:27:00;;;;;;;116.95;38.30;;;17.60;99.90;;;;;;5018464;28;20191;-68
2021/09/28 10:29:41;;;;;;;95.70;35.20;;;17.60;99.90;;;;;;4927384;28;20213;-65
2021/09/28 10:32:32;;;;;;;128.30;40.10;;;17.60;99.90;;;;;;5031360;28;20192;-73
2021/09/28 10:35:14;;;;;;;125.90;39.90;;;17.60;99.90;;;;;;5031480;28;20552;-70
2021/09/28 10:38:00;;;;;;;;;;;17.70;99.90;;;;;;5028057;28;20540;-75
2021/09/28 10:40:31;;;;;;;124.80;39.70;;;17.70;99.90;;;;;;5023723;28;20674;-68
2021/09/28 10:43:09;;;;;;;122.00;39.00;;;17.70;99.90;;;;;;5027908;28;20200;-67
2021/09/28 10:45:36;;;;;;;121.80;39.30;;;17.70;99.90;;;;;;5027641;28;20335;-67
2021/09/28 10:48:07;;;;;;;120.40;38.95;;;17.70;99.90;;;;;;5022995;28;20288;-64
2021/09/28 10:50:35;;;;;;;119.40;38.70;;;17.60;99.90;;;;;;5035534;28;20204;-63
2021/09/28 10:53:06;;;;;;;128.40;39.30;;;17.70;99.90;;;;;;5052213;28;20193;-68
2021/09/28 10:55:41;;;;;;;134.80;40.40;;;17.70;99.90;;;;;;5038453;28;20586;-66
2021/09/28 10:58:18;;;;;;;142.87;41.17;;;17.70;99.90;;;;;;5053290;28;20559;-64
2021/09/28 11:00:49;;;;;;;134.60;41.00;;;17.70;99.90;;;;;;5039282;28;20183;-77
2021/09/28 11:03:17;;;;;;;134.30;40.10;;;17.70;99.90;;;;;;5040736;28;20391;-75
2021/09/28 11:05:59;;;;;;;145.80;42.50;;;17.70;99.90;;;;;;5055137;28;20273;-73
2021/09/28 11:08:31;;;;;;;179.65;45.80;;;17.70;99.90;;;;;;4945042;28;20406;-66
2021/09/28 11:11:00;;;;;;;172.23;45.47;;;17.70;99.90;;;;;;4965643;28;20926;-70
2021/09/28 11:13:33;;;;;;;7.03;6.43;;;17.80;99.90;;;;;;4685197;28;765696;-66
2021/09/28 11:16:04;;;;;;;137.20;38.10;;;17.80;99.90;;;;;;4973067;28;545018;-71
2021/09/28 11:18:34;;;;;;;6.15;5.55;;;17.80;99.90;;;;;;4379410;28;166366;-75
2021/09/28 11:23:39;;;;;;;161.27;43.10;;;17.80;99.90;;;;;;5021850;27;953995;-70
2021/09/28 11:26:06;;;;;;;;;;;17.80;99.90;;;;;;5039691;28;20515;-67
2021/09/28 11:31:08;;;;;;;51.65;17.75;;;17.80;99.90;;;;;;4975331;27;834511;-76
2021/09/28 11:33:45;;;;;;;52.50;15.33;;;17.70;99.90;;;;;;4952847;28;826933;-79
2021/09/28 11:36:15;;;;;;;6.85;6.25;;;17.70;99.90;;;;;;4380074;28;223797;-77
2021/09/28 11:38:48;;;;;;;151.47;43.83;;;17.70;99.90;;;;;;5059839;28;20182;-77
2021/09/28 11:41:23;;;;;;;147.93;40.80;;;17.70;99.90;;;;;;5055086;28;20280;-78
2021/09/28 11:43:51;;;;;;;147.50;41.90;;;17.70;99.90;;;;;;5060349;28;20181;-76
2021/09/28 11:46:21;;;;;;;147.30;41.97;;;17.70;99.90;;;;;;5067971;28;20200;-78
2021/09/28 11:49:02;;;;;;;147.60;40.95;;;17.70;99.90;;;;;;5058228;28;20184;-77
2021/09/28 11:51:32;;;;;;;145.00;41.15;;;17.70;99.90;;;;;;5057206;28;20189;-77
2021/09/28 11:54:06;;;;;;;145.23;41.27;;;17.60;99.90;;;;;;5056433;28;20244;-77
2021/09/28 11:56:38;;;;;;;149.70;41.60;;;17.60;99.90;;;;;;5043825;28;20695;-75
2021/09/28 11:59:11;;;;;;;145.55;41.00;;;17.60;99.90;;;;;;5063987;28;20271;-79
2021/09/28 12:01:38;;;;;;;142.20;41.10;;;17.60;99.90;;;;;;5043170;28;20182;-63
2021/09/28 12:09:37;;;;;;;160.47;41.80;;;17.60;99.90;;;;;;5014462;28;624793;-67
2021/09/28 12:12:13;;;;;;;158.77;42.40;;;17.50;99.90;;;;;;5059382;28;20204;-64
2021/09/28 12:14:43;;;;;;;158.60;42.25;;;17.50;99.90;;;;;;5053480;28;20184;-71
2021/09/28 12:17:25;;;;;;;159.50;41.80;;;17.50;99.90;;;;;;5054440;28;20217;-77
2021/09/28 12:20:03;;;;;;;153.77;42.17;;;17.40;99.90;;;;;;5056080;28;20622;-65
2021/09/28 12:22:46;;;;;;;154.27;41.83;;;17.40;99.90;;;;;;5049941;28;20569;-71
2021/09/28 12:25:19;;;;;;;152.13;41.73;;;17.40;99.90;;;;;;5052349;28;20239;-74
2021/09/28 12:28:19;;;;;;;146.80;41.50;;;17.30;99.90;;;;;;5055357;28;20193;-76
2021/09/28 12:31:08;;;;;;;145.85;41.80;;;17.20;99.90;;;;;;5055146;28;20508;-71
2021/09/28 12:33:38;;;;;;;144.10;41.60;;;17.20;99.90;;;;;;5054721;28;20186;-80
2021/09/28 12:36:05;;;;;;;140.90;40.20;;;17.30;99.90;;;;;;5054633;28;20202;-79
2021/09/28 12:38:33;;;;;;;152.27;41.20;;;17.30;99.90;;;;;;5056417;28;20213;-76
2021/09/28 12:41:07;;;;;;;148.30;43.00;;;17.20;99.90;;;;;;5052290;28;20263;-78
2021/09/28 12:43:35;;;;;;;145.70;40.90;;;17.30;99.90;;;;;;5044573;28;20184;-77
2021/09/28 12:46:05;;;;;;;138.70;40.30;;;17.20;99.90;;;;;;5045503;28;20191;-78
2021/09/28 12:48:39;;;;;;;141.10;40.80;;;17.20;99.90;;;;;;5050433;28;20187;-72
2021/09/28 12:51:10;;;;;;;142.10;40.10;;;17.20;99.90;;;;;;5042367;28;20539;-80
2021/09/28 12:53:39;;;;;;;142.40;41.30;;;17.20;99.90;;;;;;5040478;28;20690;-77
2021/09/28 12:56:06;;;;;;;147.10;41.00;;;17.10;99.90;;;;;;5029064;28;20195;-75
2021/09/28 12:58:35;;;;;;;148.50;41.50;;;17.10;99.90;;;;;;5052353;28;20238;-77
2021/09/28 13:01:03;;;;;;;148.25;41.25;;;17.10;99.90;;;;;;5042561;28;20647;-78
2021/09/28 13:03:35;;;;;;;143.40;42.70;;;17.00;99.90;;;;;;5041206;28;20199;-78
2021/09/28 13:06:09;;;;;;;138.75;40.30;;;16.90;99.90;;;;;;5036280;28;20188;-78
2021/09/28 13:08:38;;;;;;;135.00;39.95;;;16.90;99.90;;;;;;5039958;28;20658;-78
2021/09/28 13:11:09;;;;;;;133.40;40.40;;;16.90;99.90;;;;;;5036997;28;20584;-78
2021/09/28 13:13:36;;;;;;;128.00;39.20;;;16.90;99.90;;;;;;5034439;28;20188;-76
2021/09/28 13:16:08;;;;;;;121.77;38.17;;;16.80;99.90;;;;;;5027143;28;20562;-74
2021/09/28 13:18:36;;;;;;;138.75;41.20;;;16.80;99.90;;;;;;5038310;28;20184;-78
2021/09/28 13:21:04;;;;;;;137.85;40.65;;;16.70;99.90;;;;;;5036626;28;20189;-77
2021/09/28 13:23:31;;;;;;;152.15;44.80;;;16.70;99.90;;;;;;5040124;28;20276;-78
2021/09/28 13:25:58;;;;;;;140.40;41.95;;;16.60;99.90;;;;;;5030484;28;20228;-77
2021/09/28 13:28:26;;;;;;;123.60;39.20;;;16.50;99.90;;;;;;5023552;28;20190;-71
2021/09/28 13:30:53;;;;;;;103.90;36.90;;;16.40;99.90;;;;;;4985958;28;20739;-78
2021/09/28 13:33:21;;;;;;;107.90;37.75;;;16.40;99.90;;;;;;5003662;28;20215;-67